createdAt,value
2019-04-06T00:00:13.458Z,22.50
2019-04-06T00:02:42.891Z,23.40
2019-04-06T00:05:12.948Z,22.70
2019-04-06T00:07:42.372Z,24.53
2019-04-06T00:10:12.422Z,20.20
2019-04-06T00:12:41.926Z,21.33
2019-04-06T00:15:11.773Z,20.40
2019-04-06T00:17:41.305Z,21.20
2019-04-06T00:20:11.258Z,18.67
2019-04-06T00:22:40.725Z,19.40
2019-04-06T00:25:11.737Z,18.83
2019-04-06T00:27:41.163Z,17.77
2019-04-06T00:30:11.324Z,18.30
2019-04-06T00:32:48.531Z,18.83
2019-04-06T00:35:18.262Z,17.40
2019-04-06T00:37:47.857Z,18.70
2019-04-06T00:40:17.404Z,17.87
2019-04-06T00:42:48.647Z,17.47
2019-04-06T00:45:18.381Z,15.77
2019-04-06T00:47:47.889Z,16.77
2019-04-06T00:50:20.436Z,16.57
2019-04-06T00:52:49.938Z,17.03
2019-04-06T00:55:19.545Z,16.47
2019-04-06T00:57:50.795Z,15.77
2019-04-06T01:00:22.205Z,17.03
2019-04-06T01:02:53.459Z,16.27
2019-04-06T01:05:24.723Z,16.20
2019-04-06T01:07:54.141Z,16.57
2019-04-06T01:10:23.734Z,14.83
2019-04-06T01:12:53.291Z,15.00
2019-04-06T01:15:22.758Z,15.20
2019-04-06T01:17:52.214Z,15.93
2019-04-06T01:20:21.634Z,15.33
2019-04-06T01:22:51.046Z,15.70
2019-04-06T01:25:20.562Z,14.80
2019-04-06T01:27:50.066Z,14.80
2019-04-06T01:30:19.729Z,15.13
2019-04-06T01:32:49.287Z,15.13
2019-04-06T01:35:18.747Z,14.93
2019-04-06T01:37:48.295Z,15.90
2019-04-06T01:40:17.869Z,14.50
2019-04-06T01:42:47.294Z,14.93
2019-04-06T01:45:17.007Z,13.70
2019-04-06T01:47:46.590Z,14.30
2019-04-06T01:50:16.185Z,14.13
2019-04-06T01:52:45.726Z,13.53
2019-04-06T01:55:15.265Z,14.27
2019-04-06T01:57:44.863Z,15.23
2019-04-06T02:00:14.929Z,15.33
2019-04-06T02:02:47.173Z,13.87
2019-04-06T02:05:16.870Z,13.50
2019-04-06T02:07:46.367Z,14.60
2019-04-06T02:10:16.034Z,14.37
2019-04-06T02:12:45.456Z,14.30
2019-04-06T02:15:16.056Z,14.27
2019-04-06T02:17:45.624Z,13.97
2019-04-06T02:20:15.374Z,14.87
2019-04-06T02:22:44.836Z,14.97
2019-04-06T02:25:14.355Z,14.47
2019-04-06T02:27:43.782Z,15.60
2019-04-06T02:30:20.137Z,13.93
2019-04-06T02:33:14.207Z,16.43
2019-04-06T02:36:03.608Z,14.57
2019-04-06T02:38:50.983Z,14.83
2019-04-06T02:41:38.712Z,14.97
2019-04-06T02:44:08.330Z,15.37
2019-04-06T02:46:37.917Z,15.23
2019-04-06T02:49:07.341Z,15.47
2019-04-06T02:51:36.805Z,16.43
2019-04-06T02:54:06.475Z,15.90
2019-04-06T02:56:45.964Z,16.10
2019-04-06T02:59:07.167Z,15.07
2019-04-06T03:01:36.937Z,14.60
2019-04-06T03:04:06.441Z,15.67
2019-04-06T03:06:36.031Z,15.47
2019-04-06T03:09:06.348Z,15.90
2019-04-06T03:11:35.770Z,15.67
2019-04-06T03:14:05.381Z,15.77
2019-04-06T03:16:35.066Z,15.00
2019-04-06T03:19:05.101Z,15.60
2019-04-06T03:21:34.518Z,15.47
2019-04-06T03:24:04.214Z,15.60
2019-04-06T03:26:33.651Z,15.30
2019-04-06T03:29:03.530Z,15.87
2019-04-06T03:31:33.107Z,15.90
2019-04-06T03:34:02.825Z,16.50
2019-04-06T03:36:32.925Z,16.13
2019-04-06T03:39:02.717Z,15.90
2019-04-06T03:41:32.127Z,16.20
2019-04-06T03:44:04.242Z,15.40
2019-04-06T03:46:33.721Z,14.97
2019-04-06T03:49:03.181Z,16.30
2019-04-06T03:51:32.675Z,15.13
2019-04-06T03:54:02.338Z,15.47
2019-04-06T03:56:31.779Z,15.87
2019-04-06T03:59:01.222Z,14.27
2019-04-06T04:01:30.799Z,15.60
2019-04-06T04:04:00.546Z,15.27
2019-04-06T04:06:30.250Z,15.33
2019-04-06T04:08:59.917Z,15.33
2019-04-06T04:11:29.454Z,15.60
2019-04-06T04:13:58.992Z,15.47
2019-04-06T04:16:28.719Z,16.03
2019-04-06T04:18:58.305Z,15.83
2019-04-06T04:21:27.732Z,15.53
2019-04-06T04:23:57.404Z,15.20
2019-04-06T04:26:26.965Z,16.33
2019-04-06T04:28:56.413Z,15.87
2019-04-06T04:31:25.835Z,15.73
2019-04-06T04:33:55.243Z,16.17
2019-04-06T04:36:24.664Z,16.00
2019-04-06T04:38:54.070Z,15.97
2019-04-06T04:41:23.492Z,15.60
2019-04-06T04:43:52.994Z,17.93
2019-04-06T04:46:22.478Z,16.53
2019-04-06T04:48:51.963Z,15.77
2019-04-06T04:51:21.448Z,15.87
2019-04-06T04:53:51.020Z,16.50
2019-04-06T04:56:20.450Z,15.27
2019-04-06T04:58:49.888Z,16.73
2019-04-06T05:01:19.319Z,17.13
2019-04-06T05:03:48.730Z,16.13
2019-04-06T05:06:18.168Z,16.63
2019-04-06T05:08:47.601Z,16.43
2019-04-06T05:11:17.014Z,16.77
2019-04-06T05:13:46.458Z,16.63
2019-04-06T05:16:15.882Z,17.30
2019-04-06T05:18:45.318Z,17.43
2019-04-06T05:21:15.163Z,16.23
2019-04-06T05:23:44.743Z,17.13
2019-04-06T05:26:14.321Z,16.30
2019-04-06T05:28:43.764Z,16.80
2019-04-06T05:31:13.320Z,17.77
2019-04-06T05:33:42.798Z,18.30
2019-04-06T05:36:12.233Z,17.03
2019-04-06T05:38:41.705Z,17.13
2019-04-06T05:41:11.216Z,17.20
2019-04-06T05:43:40.810Z,17.73
2019-04-06T05:46:10.398Z,18.50
2019-04-06T05:48:39.899Z,18.53
2019-04-06T05:51:09.373Z,17.37
2019-04-06T05:53:38.831Z,18.53
2019-04-06T05:56:08.309Z,19.17
2019-04-06T05:58:39.908Z,17.77
2019-04-06T06:01:11.193Z,17.23
2019-04-06T06:03:41.190Z,18.63
2019-04-06T06:06:12.629Z,17.93
2019-04-06T06:08:42.202Z,18.60
2019-04-06T06:11:11.809Z,17.80
2019-04-06T06:13:41.297Z,18.10
2019-04-06T06:16:11.899Z,18.60
2019-04-06T06:18:41.754Z,19.03
2019-04-06T06:21:11.226Z,18.07
2019-04-06T06:23:40.711Z,18.50
2019-04-06T06:26:10.169Z,18.60
2019-04-06T06:28:39.639Z,18.63
2019-04-06T06:31:09.154Z,19.47
2019-04-06T06:33:38.836Z,18.67
2019-04-06T06:36:08.712Z,18.30
2019-04-06T06:38:39.305Z,19.63
2019-04-06T06:41:09.144Z,19.20
2019-04-06T06:43:38.594Z,19.30
2019-04-06T06:46:08.086Z,19.13
2019-04-06T06:48:37.656Z,19.83
2019-04-06T06:51:07.722Z,19.57
2019-04-06T06:53:37.152Z,19.50
2019-04-06T06:56:06.762Z,18.63
2019-04-06T06:58:36.552Z,19.70
2019-04-06T07:01:06.366Z,20.10
2019-04-06T07:03:35.782Z,18.70
2019-04-06T07:06:05.479Z,19.07
2019-04-06T07:08:34.994Z,17.97
2019-04-06T07:11:04.884Z,18.30
2019-04-06T07:13:34.498Z,19.77
2019-04-06T07:16:03.966Z,19.50
2019-04-06T07:18:33.435Z,19.90
2019-04-06T07:21:03.078Z,19.63
2019-04-06T07:23:32.481Z,19.73
2019-04-06T07:26:02.203Z,19.50
2019-04-06T07:28:37.462Z,19.33
2019-04-06T07:31:03.043Z,19.63
2019-04-06T07:33:32.511Z,20.40
2019-04-06T07:36:02.099Z,19.67
2019-04-06T07:38:31.801Z,20.10
2019-04-06T07:41:01.379Z,19.17
2019-04-06T07:43:30.839Z,19.50
2019-04-06T07:46:00.488Z,19.87
2019-04-06T07:48:29.977Z,19.27
2019-04-06T07:50:59.487Z,19.37
2019-04-06T07:53:29.003Z,19.47
2019-04-06T07:55:58.676Z,20.07
2019-04-06T07:58:28.117Z,19.13
2019-04-06T08:00:57.551Z,20.53
2019-04-06T08:03:27.125Z,19.87
2019-04-06T08:05:56.885Z,19.87
2019-04-06T08:08:28.632Z,19.90
2019-04-06T08:10:57.787Z,19.23
2019-04-06T08:13:27.331Z,20.33
2019-04-06T08:15:57.109Z,21.53
2019-04-06T08:18:26.607Z,19.60
2019-04-06T08:20:56.186Z,19.57
2019-04-06T08:23:25.794Z,22.63
2019-04-06T08:25:55.284Z,20.07
2019-04-06T08:28:24.788Z,20.53
2019-04-06T08:30:54.578Z,20.23
2019-04-06T08:33:24.077Z,21.37
2019-04-06T08:35:53.559Z,20.33
2019-04-06T08:38:23.102Z,20.60
2019-04-06T08:40:52.894Z,20.97
2019-04-06T08:43:22.585Z,20.77
2019-04-06T08:45:52.316Z,20.97
2019-04-06T08:48:21.935Z,19.90
2019-04-06T08:50:51.706Z,19.87
2019-04-06T08:53:21.294Z,19.53
2019-04-06T08:55:51.086Z,19.20
2019-04-06T08:58:20.714Z,18.93
2019-04-06T09:00:50.255Z,19.73
2019-04-06T09:03:20.128Z,19.90
2019-04-06T09:05:49.670Z,20.37
2019-04-06T09:08:19.199Z,18.50
2019-04-06T09:10:48.665Z,19.60
2019-04-06T09:13:18.107Z,18.10
2019-04-06T09:15:47.619Z,18.47
2019-04-06T09:18:17.188Z,20.17
2019-04-06T09:20:46.861Z,19.50
2019-04-06T09:23:16.411Z,19.17
2019-04-06T09:25:46.073Z,18.93
2019-04-06T09:28:15.673Z,18.27
2019-04-06T09:30:45.156Z,18.40
2019-04-06T09:33:14.636Z,18.33
2019-04-06T09:35:44.189Z,17.97
2019-04-06T09:38:19.751Z,18.03
2019-04-06T09:40:49.974Z,18.30
2019-04-06T09:43:19.556Z,18.27
2019-04-06T09:46:08.877Z,18.07
2019-04-06T09:49:09.338Z,18.57
2019-04-06T09:51:56.836Z,17.50
2019-04-06T09:54:31.958Z,17.50
2019-04-06T09:57:26.397Z,17.80
2019-04-06T10:00:00.886Z,19.13
2019-04-06T10:02:37.474Z,18.10
2019-04-06T10:05:29.791Z,18.00
2019-04-06T10:08:10.169Z,17.50
2019-04-06T10:10:49.420Z,16.27
2019-04-06T10:13:37.555Z,16.63
2019-04-06T10:16:32.367Z,16.97
2019-04-06T10:19:12.999Z,17.80
2019-04-06T10:22:09.336Z,16.30
2019-04-06T10:24:58.087Z,14.17
2019-04-06T10:27:45.302Z,14.97
2019-04-06T10:30:33.854Z,14.93
2019-04-06T10:33:19.353Z,17.43
2019-04-06T10:35:59.903Z,15.97
2019-04-06T10:38:51.463Z,15.90
2019-04-06T10:41:37.344Z,16.30
2019-04-06T10:44:24.711Z,17.90
2019-04-06T10:47:16.751Z,17.87
2019-04-06T10:50:01.492Z,17.07
2019-04-06T10:52:49.055Z,15.67
2019-04-06T10:55:28.119Z,16.70
2019-04-06T10:58:15.857Z,16.63
2019-04-06T11:01:07.349Z,16.70
2019-04-06T11:04:02.289Z,18.67
2019-04-06T11:06:42.062Z,17.87
2019-04-06T11:09:33.741Z,17.87
2019-04-06T11:12:27.803Z,18.63
2019-04-06T11:15:31.783Z,17.90
2019-04-06T11:18:16.254Z,19.67
2019-04-06T11:20:53.060Z,20.00
2019-04-06T11:23:53.714Z,20.40
2019-04-06T11:26:42.237Z,20.30
2019-04-06T11:29:33.958Z,19.33
2019-04-06T11:32:34.600Z,19.03
2019-04-06T11:35:35.901Z,19.17
2019-04-06T11:38:15.409Z,18.60
2019-04-06T11:40:57.595Z,17.77
2019-04-06T11:43:52.272Z,18.67
2019-04-06T11:46:26.721Z,18.83
2019-04-06T11:49:21.305Z,18.07
2019-04-06T11:51:59.088Z,18.67
2019-04-06T11:54:41.499Z,17.37
2019-04-06T11:57:29.483Z,17.27
2019-04-06T12:00:24.485Z,17.00
2019-04-06T12:03:01.424Z,16.43
2019-04-06T12:05:45.806Z,15.77
2019-04-06T12:08:43.267Z,15.53
2019-04-06T12:11:50.514Z,16.60
2019-04-06T12:14:39.282Z,15.63
2019-04-06T12:17:15.381Z,15.30
2019-04-06T12:20:04.193Z,15.87
2019-04-06T12:22:55.927Z,15.30
2019-04-06T12:25:43.509Z,15.40
2019-04-06T12:28:21.889Z,15.57
2019-04-06T12:31:07.504Z,16.10
2019-04-06T12:33:55.014Z,16.37
2019-04-06T12:36:40.047Z,15.10
2019-04-06T12:39:17.467Z,14.90
2019-04-06T12:42:05.015Z,15.10
2019-04-06T12:44:52.281Z,14.27
2019-04-06T12:47:34.103Z,14.07
2019-04-06T12:50:22.722Z,14.13
2019-04-06T12:53:14.752Z,13.43
2019-04-06T12:56:03.927Z,13.80
2019-04-06T12:58:57.917Z,13.57
2019-04-06T13:01:51.517Z,12.60
2019-04-06T13:04:38.798Z,12.73
2019-04-06T13:07:33.437Z,12.77
2019-04-06T13:10:17.437Z,12.17
2019-04-06T13:13:09.048Z,12.60
2019-04-06T13:16:12.727Z,12.30
2019-04-06T13:18:50.088Z,13.00
2019-04-06T13:21:37.570Z,12.20
2019-04-06T13:24:17.747Z,12.53
2019-04-06T13:27:02.839Z,11.50
2019-04-06T13:29:50.175Z,11.90
2019-04-06T13:32:37.775Z,11.40
2019-04-06T13:35:13.212Z,11.67
2019-04-06T13:38:00.504Z,11.77
2019-04-06T13:40:54.882Z,12.23
2019-04-06T13:43:42.246Z,11.23
2019-04-06T13:46:24.040Z,11.50
2019-04-06T13:49:09.122Z,11.13
2019-04-06T13:52:06.596Z,11.30
2019-04-06T13:55:01.232Z,11.60
2019-04-06T13:57:45.105Z,10.40
2019-04-06T14:00:20.566Z,10.93
2019-04-06T14:03:12.408Z,10.80
2019-04-06T14:05:53.781Z,12.07
2019-04-06T14:08:35.214Z,11.47
2019-04-06T14:11:36.009Z,11.17
2019-04-06T14:14:15.773Z,10.80
2019-04-06T14:17:09.907Z,10.97
2019-04-06T14:19:47.445Z,11.07
2019-04-06T14:22:42.175Z,11.00
2019-04-06T14:25:36.985Z,10.83
2019-04-06T14:28:25.741Z,10.63
2019-04-06T14:31:04.359Z,10.63
2019-04-06T14:33:51.789Z,10.30
2019-04-06T14:36:41.747Z,10.03
2019-04-06T14:39:45.611Z,12.00
2019-04-06T14:42:33.182Z,10.83
2019-04-06T14:45:21.812Z,11.10
2019-04-06T14:48:09.427Z,10.40
2019-04-06T14:50:54.226Z,10.37
2019-04-06T14:53:28.960Z,10.93
2019-04-06T14:56:14.462Z,9.60
2019-04-06T14:59:01.866Z,10.13
2019-04-06T15:01:57.832Z,10.60
2019-04-06T15:04:36.160Z,9.60
2019-04-06T15:07:14.942Z,9.67
2019-04-06T15:10:06.608Z,9.57
2019-04-06T15:13:01.024Z,9.87
2019-04-06T15:15:56.565Z,9.70
2019-04-06T15:18:48.071Z,9.70
2019-04-06T15:21:35.561Z,10.60
2019-04-06T15:24:17.082Z,9.40
2019-04-06T15:27:04.605Z,9.77
2019-04-06T15:29:44.168Z,9.83
2019-04-06T15:32:31.544Z,9.73
2019-04-06T15:35:08.832Z,9.67
2019-04-06T15:37:47.867Z,8.97
2019-04-06T15:40:23.028Z,9.53
2019-04-06T15:43:14.502Z,9.50
2019-04-06T15:46:00.428Z,9.17
2019-04-06T15:48:54.676Z,8.93
2019-04-06T15:51:39.304Z,9.13
2019-04-06T15:54:21.058Z,9.03
2019-04-06T15:57:18.643Z,11.07
2019-04-06T15:59:53.819Z,9.73
2019-04-06T16:02:45.582Z,9.97
2019-04-06T16:05:24.139Z,10.30
2019-04-06T16:08:22.161Z,10.70
2019-04-06T16:11:09.903Z,10.03
2019-04-06T16:13:48.690Z,10.37
2019-04-06T16:16:24.073Z,10.00
2019-04-06T16:19:18.992Z,10.40
2019-04-06T16:21:57.864Z,10.10
2019-04-06T16:24:49.694Z,9.77
2019-04-06T16:27:44.282Z,8.80
2019-04-06T16:30:30.630Z,9.90
2019-04-06T16:33:19.453Z,9.50
2019-04-06T16:35:55.082Z,9.17
2019-04-06T16:38:42.574Z,8.70
2019-04-06T16:41:29.981Z,8.90
2019-04-06T16:44:24.927Z,10.67
2019-04-06T16:47:02.542Z,9.50
2019-04-06T16:49:42.196Z,9.33
2019-04-06T16:52:29.990Z,9.57
2019-04-06T16:55:17.747Z,9.30
2019-04-06T16:58:06.447Z,9.67
2019-04-06T17:01:00.680Z,10.13
2019-04-06T17:06:30.440Z,10.63
2019-04-06T17:09:10.038Z,9.50
2019-04-06T17:11:57.319Z,10.73
2019-04-06T17:14:39.476Z,10.20
2019-04-06T17:17:18.694Z,10.80
2019-04-06T17:20:25.457Z,10.07
2019-04-06T17:23:23.280Z,9.70
2019-04-06T17:26:13.351Z,10.60
2019-04-06T17:29:08.145Z,10.20
2019-04-06T17:32:03.012Z,10.53
2019-04-06T17:34:38.558Z,10.93
2019-04-06T17:37:29.285Z,10.93
2019-04-06T17:40:05.036Z,10.17
2019-04-06T17:42:53.182Z,10.40
2019-04-06T17:45:42.605Z,11.30
2019-04-06T17:48:34.079Z,10.80
2019-04-06T17:51:11.582Z,11.40
2019-04-06T17:53:54.123Z,14.43
2019-04-06T17:56:45.766Z,10.90
2019-04-06T17:59:46.220Z,11.83
2019-04-06T18:02:25.022Z,12.17
2019-04-06T18:05:16.848Z,11.47
2019-04-06T18:07:56.189Z,11.57
2019-04-06T18:10:35.667Z,11.93
2019-04-06T18:13:20.671Z,11.10
2019-04-06T18:15:51.214Z,10.97
2019-04-06T18:18:21.198Z,12.37
2019-04-06T18:20:50.802Z,11.83
2019-04-06T18:23:20.256Z,11.00
2019-04-06T18:25:49.730Z,10.47
2019-04-06T18:28:19.689Z,12.07
2019-04-06T18:30:56.148Z,10.37
2019-04-06T18:33:26.107Z,10.97
2019-04-06T18:35:55.685Z,10.93
2019-04-06T18:38:29.964Z,10.77
2019-04-06T18:40:59.407Z,10.70
2019-04-06T18:43:29.391Z,11.17
2019-04-06T18:45:59.092Z,11.03
2019-04-06T18:48:29.290Z,11.13
2019-04-06T18:50:58.803Z,10.27
2019-04-06T18:53:28.589Z,10.83
2019-04-06T18:55:58.492Z,10.83
2019-04-06T18:58:28.092Z,10.67
2019-04-06T19:00:57.600Z,11.10
2019-04-06T19:03:27.518Z,9.97
2019-04-06T19:05:57.040Z,10.50
2019-04-06T19:08:26.572Z,10.60
2019-04-06T19:10:56.642Z,11.23
2019-04-06T19:13:26.231Z,11.37
2019-04-06T19:15:55.833Z,10.60
2019-04-06T19:18:25.413Z,11.00
2019-04-06T19:20:54.971Z,11.63
2019-04-06T19:23:24.479Z,10.93
2019-04-06T19:25:54.126Z,11.23
2019-04-06T19:28:23.697Z,10.77
2019-04-06T19:30:53.146Z,11.33
2019-04-06T19:33:25.658Z,10.60
2019-04-06T19:35:53.792Z,10.53
2019-04-06T19:38:23.398Z,10.50
2019-04-06T19:40:53.069Z,10.67
2019-04-06T19:43:22.934Z,10.87
2019-04-06T19:45:52.896Z,10.40
2019-04-06T19:48:22.524Z,10.43
2019-04-06T19:50:51.959Z,11.13
2019-04-06T19:53:21.486Z,10.07
2019-04-06T19:55:50.951Z,10.80
2019-04-06T19:58:20.672Z,11.10
2019-04-06T20:00:50.672Z,10.93
2019-04-06T20:03:20.452Z,10.90
2019-04-06T20:05:50.405Z,10.33
2019-04-06T20:08:20.502Z,11.00
2019-04-06T20:10:50.773Z,10.37
2019-04-06T20:13:20.298Z,9.97
2019-04-06T20:15:49.724Z,11.03
2019-04-06T20:18:19.254Z,11.07
2019-04-06T20:20:48.657Z,11.67
2019-04-06T20:23:18.096Z,11.43
2019-04-06T20:25:47.694Z,10.60
2019-04-06T20:28:17.558Z,10.63
2019-04-06T20:30:47.066Z,11.27
2019-04-06T20:33:18.973Z,10.53
2019-04-06T20:35:47.660Z,11.17
2019-04-06T20:38:17.153Z,11.47
2019-04-06T20:40:47.056Z,11.10
2019-04-06T20:43:16.661Z,12.27
2019-04-06T20:45:46.574Z,11.30
2019-04-06T20:48:16.216Z,11.53
2019-04-06T20:50:46.114Z,11.57
2019-04-06T20:53:15.625Z,10.90
2019-04-06T20:55:45.252Z,11.97
2019-04-06T20:58:14.796Z,11.47
2019-04-06T21:00:44.219Z,11.83
2019-04-06T21:03:13.981Z,10.97
2019-04-06T21:05:44.133Z,10.57
2019-04-06T21:08:14.399Z,10.47
2019-04-06T21:10:44.070Z,10.20
2019-04-06T21:13:13.510Z,10.93
2019-04-06T21:15:43.541Z,11.23
2019-04-06T21:18:13.188Z,10.63
2019-04-06T21:20:43.105Z,11.00
2019-04-06T21:23:12.900Z,10.80
2019-04-06T21:25:42.969Z,11.00
2019-04-06T21:28:12.504Z,11.57
2019-04-06T21:30:41.960Z,10.63
2019-04-06T21:33:11.430Z,10.90
2019-04-06T21:35:40.853Z,10.57
2019-04-06T21:38:10.565Z,10.80
2019-04-06T21:40:40.053Z,10.80
2019-04-06T21:43:09.567Z,11.03
2019-04-06T21:45:39.338Z,11.43
2019-04-06T21:48:09.448Z,10.77
2019-04-06T21:50:39.051Z,10.50
2019-04-06T21:53:08.542Z,10.70
2019-04-06T21:55:38.015Z,10.50
2019-04-06T21:58:07.441Z,11.13
2019-04-06T22:00:47.699Z,10.50
2019-04-06T22:03:17.857Z,10.67
2019-04-06T22:05:47.730Z,11.20
2019-04-06T22:08:17.556Z,11.10
2019-04-06T22:10:47.471Z,10.77
2019-04-06T22:13:16.971Z,10.83
2019-04-06T22:15:46.510Z,11.23
2019-04-06T22:18:15.971Z,10.77
2019-04-06T22:20:45.469Z,12.20
2019-04-06T22:23:14.991Z,11.70
2019-04-06T22:25:44.863Z,11.13
2019-04-06T22:28:14.449Z,11.93
2019-04-06T22:30:44.856Z,10.63
2019-04-06T22:33:14.578Z,11.77
2019-04-06T22:35:44.220Z,11.10
2019-04-06T22:38:13.682Z,10.93
2019-04-06T22:40:43.128Z,11.37
2019-04-06T22:43:13.373Z,11.40
2019-04-06T22:45:42.983Z,10.97
2019-04-06T22:48:12.453Z,11.17
2019-04-06T22:50:41.945Z,11.03
2019-04-06T22:53:11.401Z,10.70
2019-04-06T22:55:41.396Z,10.77
2019-04-06T22:58:11.033Z,11.37
2019-04-06T23:00:44.731Z,10.10
2019-04-06T23:03:48.465Z,11.67
2019-04-06T23:06:23.342Z,11.03
2019-04-06T23:08:53.104Z,11.43
2019-04-06T23:11:22.852Z,11.83
2019-04-06T23:13:52.454Z,10.83
2019-04-06T23:16:21.934Z,11.63
2019-04-06T23:18:51.449Z,11.30
2019-04-06T23:21:21.451Z,11.23
2019-04-06T23:23:50.982Z,10.27
2019-04-06T23:26:20.448Z,11.43
2019-04-06T23:28:50.254Z,11.17
2019-04-06T23:31:21.087Z,10.90
2019-04-06T23:33:50.649Z,11.83
2019-04-06T23:36:20.341Z,12.63
2019-04-06T23:38:49.825Z,12.40
2019-04-06T23:41:20.078Z,11.07
2019-04-06T23:43:49.674Z,11.90
2019-04-06T23:46:19.122Z,11.13
2019-04-06T23:48:48.667Z,11.67
2019-04-06T23:51:18.651Z,12.17
2019-04-06T23:53:48.397Z,11.63
2019-04-06T23:56:18.798Z,11.03
2019-04-06T23:58:48.688Z,11.13
